createdAt,value
2023-05-21T00:04:55.523Z,5.50
2023-05-21T00:14:57.452Z,4.82
2023-05-21T00:25:01.415Z,5.30
2023-05-21T00:35:03.693Z,5.07
2023-05-21T00:45:07.368Z,5.20
2023-05-21T00:55:16.576Z,4.93
2023-05-21T01:05:25.649Z,4.60
2023-05-21T01:15:39.185Z,5.53
2023-05-21T01:25:42.536Z,5.10
2023-05-21T01:36:24.596Z,4.20
2023-05-21T01:46:39.012Z,5.18
2023-05-21T01:56:42.137Z,4.97
2023-05-21T02:06:44.706Z,4.70
2023-05-21T02:16:47.440Z,4.53
2023-05-21T02:26:52.545Z,4.45
2023-05-21T02:36:55.730Z,4.05
2023-05-21T02:47:01.785Z,4.28
2023-05-21T02:57:03.822Z,3.85
2023-05-21T03:07:30.956Z,4.25
2023-05-21T03:17:32.912Z,3.70
2023-05-21T03:27:34.905Z,4.22
2023-05-21T03:37:36.851Z,4.32
2023-05-21T03:47:43.234Z,3.70
2023-05-21T04:07:46.985Z,4.70
2023-05-21T04:17:50.488Z,3.10
2023-05-21T04:27:52.873Z,3.85
2023-05-21T04:37:58.881Z,3.00
2023-05-21T04:48:06.562Z,3.25
2023-05-21T04:58:11.135Z,4.43
2023-05-21T05:08:15.577Z,2.60
2023-05-21T05:18:20.693Z,2.80
2023-05-21T05:28:29.001Z,2.92
2023-05-21T05:38:31.447Z,2.38
2023-05-21T05:48:34.456Z,2.53
2023-05-21T05:58:36.379Z,2.70
2023-05-21T06:08:38.519Z,3.10
2023-05-21T06:18:42.510Z,2.40
2023-05-21T06:28:49.935Z,2.75
2023-05-21T06:38:52.947Z,2.95
2023-05-21T06:48:54.927Z,2.67
2023-05-21T06:58:56.938Z,2.60
2023-05-21T07:08:59.029Z,2.60
2023-05-21T07:19:02.108Z,2.35
2023-05-21T07:29:04.201Z,2.47
2023-05-21T07:39:06.228Z,1.83
2023-05-21T07:49:18.139Z,2.25
2023-05-21T07:59:20.247Z,1.73
2023-05-21T08:09:23.374Z,2.13
2023-05-21T08:19:26.449Z,1.60
2023-05-21T08:29:29.554Z,1.85
2023-05-21T08:39:31.594Z,1.40
2023-05-21T08:49:36.188Z,2.78
2023-05-21T08:59:40.454Z,1.95
2023-05-21T09:09:54.168Z,1.80
2023-05-21T09:20:16.579Z,1.90
2023-05-21T09:30:25.251Z,1.80
2023-05-21T09:40:35.523Z,2.13
2023-05-21T09:50:40.328Z,2.00
2023-05-21T10:00:42.575Z,1.92
2023-05-21T10:10:46.923Z,2.08
2023-05-21T10:20:49.796Z,2.33
2023-05-21T10:30:53.762Z,1.70
2023-05-21T10:40:56.306Z,1.88
2023-05-21T10:51:18.837Z,2.50
2023-05-21T11:01:21.477Z,2.50
2023-05-21T11:11:43.919Z,2.03
2023-05-21T11:21:53.867Z,2.35
2023-05-21T11:32:03.239Z,2.25
2023-05-21T11:42:05.554Z,2.30
2023-05-21T11:52:10.157Z,1.88
2023-05-21T12:02:20.354Z,2.00
2023-05-21T12:12:35.311Z,2.85
2023-05-21T12:22:44.986Z,1.60
2023-05-21T12:32:47.026Z,2.72
2023-05-21T12:42:50.327Z,2.22
2023-05-21T12:52:58.994Z,1.85
2023-05-21T13:03:02.289Z,1.70
2023-05-21T13:13:04.274Z,2.05
2023-05-21T13:23:07.758Z,2.58
2023-05-21T13:33:12.309Z,3.25
2023-05-21T13:43:14.310Z,2.25
2023-05-21T13:53:16.455Z,2.50
2023-05-21T14:03:18.517Z,2.03
2023-05-21T14:13:23.026Z,2.70
2023-05-21T14:23:28.429Z,2.60
2023-05-21T14:33:34.123Z,2.95
2023-05-21T14:43:36.531Z,2.10
2023-05-21T14:53:38.554Z,2.08
2023-05-21T15:03:41.850Z,2.00
2023-05-21T15:13:46.666Z,2.35
2023-05-21T15:23:49.742Z,2.13
2023-05-21T15:33:53.788Z,1.83
2023-05-21T15:43:56.872Z,3.08
2023-05-21T15:53:59.904Z,2.60
2023-05-21T16:04:06.682Z,2.03
2023-05-21T16:14:10.514Z,2.03
2023-05-21T16:24:12.624Z,2.55
2023-05-21T16:34:14.725Z,2.88
2023-05-21T16:44:16.789Z,2.33
2023-05-21T16:54:18.858Z,2.28
2023-05-21T17:04:22.966Z,2.22
2023-05-21T17:14:33.695Z,2.13
2023-05-21T17:24:36.631Z,1.75
2023-05-21T17:34:39.419Z,2.17
2023-05-21T17:44:41.565Z,2.08
2023-05-21T17:54:43.595Z,2.13
2023-05-21T18:04:45.621Z,1.55
2023-05-21T18:14:51.908Z,2.47
2023-05-21T18:24:54.909Z,3.13
2023-05-21T18:34:58.733Z,2.88
2023-05-21T18:45:08.799Z,2.55
2023-05-21T18:55:11.142Z,2.75
2023-05-21T19:05:13.508Z,3.88
2023-05-21T19:15:15.885Z,5.85
2023-05-21T19:25:18.340Z,14.43
2023-05-21T19:35:22.606Z,8.73
2023-05-21T19:45:28.600Z,9.55
2023-05-21T19:55:34.859Z,7.10
2023-05-21T20:05:36.959Z,11.45
2023-05-21T20:15:39.005Z,12.38
2023-05-21T20:25:41.055Z,11.27
2023-05-21T20:35:43.151Z,9.40
2023-05-21T20:45:49.835Z,6.00
2023-05-21T20:55:54.902Z,4.88
2023-05-21T21:05:58.241Z,5.05
2023-05-21T21:16:00.384Z,4.93
2023-05-21T21:26:04.405Z,5.43
2023-05-21T21:36:06.802Z,5.32
2023-05-21T21:46:09.017Z,5.45
2023-05-21T21:56:11.194Z,5.55
2023-05-21T22:06:14.154Z,6.57
2023-05-21T22:16:16.181Z,6.07
2023-05-21T22:26:22.600Z,4.32
2023-05-21T22:36:30.830Z,3.83
2023-05-21T22:46:36.815Z,4.40
2023-05-21T22:56:50.084Z,5.72
2023-05-21T23:06:52.079Z,4.20
2023-05-21T23:16:54.373Z,4.82
2023-05-21T23:27:02.003Z,5.75
2023-05-21T23:37:04.231Z,4.28
2023-05-21T23:47:06.791Z,4.55
2023-05-21T23:57:08.696Z,5.20
